createdAt,value
2023-03-12T00:00:49.262Z,1.00
2023-03-12T00:05:53.358Z,2.25
2023-03-12T00:10:57.365Z,0.75
2023-03-12T00:16:05.324Z,1.00
2023-03-12T00:21:09.942Z,1.00
2023-03-12T00:26:15.280Z,1.00
2023-03-12T00:31:19.456Z,1.00
2023-03-12T00:36:26.199Z,2.00
2023-03-12T00:41:31.911Z,2.00
2023-03-12T00:46:36.771Z,1.00
2023-03-12T00:51:41.451Z,2.00
2023-03-12T00:56:48.069Z,0.50
2023-03-12T01:01:52.786Z,1.50
2023-03-12T01:06:57.489Z,1.25
2023-03-12T01:12:02.084Z,0.75
2023-03-12T01:17:06.934Z,2.00
2023-03-12T01:22:12.669Z,1.00
2023-03-12T01:27:16.895Z,1.00
2023-03-12T01:32:21.603Z,2.00
2023-03-12T01:37:26.431Z,1.25
2023-03-12T01:42:31.415Z,2.00
2023-03-12T01:47:36.129Z,2.00
2023-03-12T01:52:46.030Z,2.00
2023-03-12T01:57:52.532Z,1.00
2023-03-12T02:03:01.068Z,1.25
2023-03-12T02:08:09.487Z,2.00
2023-03-12T02:13:14.849Z,1.75
2023-03-12T02:18:25.313Z,2.00
2023-03-12T02:23:30.050Z,1.00
2023-03-12T02:28:43.805Z,1.25
2023-03-12T02:33:48.773Z,1.00
2023-03-12T02:38:54.920Z,2.00
2023-03-12T02:43:59.823Z,2.00
2023-03-12T02:49:05.000Z,2.00
2023-03-12T02:54:09.787Z,1.25
2023-03-12T02:59:15.598Z,2.00
2023-03-12T03:04:22.660Z,14.75
2023-03-12T03:09:27.476Z,10.75
2023-03-12T03:14:32.424Z,10.50
2023-03-12T03:19:37.357Z,7.50
2023-03-12T03:24:42.341Z,7.00
2023-03-12T03:29:47.612Z,5.50
2023-03-12T03:34:53.165Z,5.00
2023-03-12T03:39:57.741Z,5.00
2023-03-12T03:45:02.785Z,3.75
2023-03-12T04:11:47.126Z,16.00
2023-03-12T04:16:52.789Z,12.50
2023-03-12T04:21:57.782Z,13.75
2023-03-12T04:27:02.957Z,8.50
2023-03-12T04:32:09.905Z,10.00
2023-03-12T04:37:17.454Z,10.50
2023-03-12T04:42:22.492Z,13.00
2023-03-12T04:47:27.479Z,17.50
2023-03-12T04:52:32.260Z,14.00
2023-03-12T04:57:37.118Z,17.00
2023-03-12T05:02:42.870Z,16.75
2023-03-12T05:07:47.622Z,14.25
2023-03-12T05:12:53.100Z,15.50
2023-03-12T05:17:57.971Z,17.00
2023-03-12T05:23:02.607Z,15.50
2023-03-12T05:28:08.132Z,21.25
2023-03-12T05:33:14.434Z,23.00
2023-03-12T05:38:19.357Z,15.75
2023-03-12T05:43:25.117Z,13.75
2023-03-12T05:48:30.679Z,10.25
2023-03-12T05:53:35.499Z,10.25
2023-03-12T05:58:40.815Z,8.00
2023-03-12T06:03:46.117Z,7.75
2023-03-12T06:08:51.888Z,7.00
2023-03-12T06:13:57.832Z,7.25
2023-03-12T06:19:03.808Z,6.00
2023-03-12T06:24:09.660Z,5.25
2023-03-12T06:29:27.159Z,10.75
2023-03-12T06:34:31.942Z,10.00
2023-03-12T06:39:36.922Z,5.00
2023-03-12T06:44:41.747Z,6.25
2023-03-12T06:49:46.811Z,6.00
2023-03-12T06:54:51.669Z,16.50
2023-03-12T06:59:56.343Z,17.00
2023-03-12T07:05:01.413Z,36.50
2023-03-12T07:10:07.843Z,28.25
2023-03-12T07:15:12.715Z,28.00
2023-03-12T07:20:17.555Z,17.25
2023-03-12T07:25:22.397Z,15.00
2023-03-12T07:30:26.970Z,12.25
2023-03-12T07:35:32.723Z,9.50
2023-03-12T07:40:38.672Z,9.75
2023-03-12T07:45:43.530Z,9.25
2023-03-12T07:50:48.614Z,10.50
2023-03-12T07:55:53.697Z,9.75
2023-03-12T08:00:58.604Z,9.00
2023-03-12T08:06:04.859Z,8.75
2023-03-12T08:11:10.416Z,7.00
2023-03-12T08:16:16.202Z,7.00
2023-03-12T08:21:20.875Z,8.25
2023-03-12T08:26:25.593Z,11.00
2023-03-12T08:31:30.613Z,6.00
2023-03-12T08:36:35.390Z,8.00
2023-03-12T08:41:39.960Z,10.00
2023-03-12T08:46:44.666Z,7.75
2023-03-12T08:51:49.672Z,7.00
2023-03-12T08:56:54.644Z,7.25
2023-03-12T09:01:59.452Z,6.25
2023-03-12T09:07:04.636Z,5.75
2023-03-12T09:12:09.301Z,7.00
2023-03-12T09:17:13.913Z,6.00
2023-03-12T09:22:19.607Z,7.25
2023-03-12T09:27:24.797Z,7.00
2023-03-12T09:32:29.718Z,6.00
2023-03-12T09:37:34.469Z,4.00
2023-03-12T09:42:56.355Z,5.75
2023-03-12T09:48:03.192Z,5.00
2023-03-12T09:53:26.377Z,7.50
2023-03-12T09:58:35.219Z,7.25
2023-03-12T10:03:56.150Z,7.00
2023-03-12T10:09:21.542Z,7.00
2023-03-12T10:14:38.355Z,5.75
2023-03-12T10:19:55.345Z,5.50
2023-03-12T10:25:03.209Z,7.00
2023-03-12T10:30:24.522Z,5.00
2023-03-12T10:35:33.949Z,6.75
2023-03-12T10:40:40.368Z,6.00
2023-03-12T10:46:03.100Z,6.25
2023-03-12T10:51:09.230Z,6.25
2023-03-12T10:56:15.190Z,6.25
2023-03-12T11:01:24.559Z,5.50
2023-03-12T11:06:30.376Z,7.00
2023-03-12T11:11:36.384Z,8.25
2023-03-12T11:16:42.792Z,4.50
2023-03-12T11:21:59.033Z,5.00
2023-03-12T11:27:09.892Z,6.50
2023-03-12T11:32:19.962Z,5.00
2023-03-12T11:37:27.347Z,6.25
2023-03-12T11:42:42.768Z,5.00
2023-03-12T11:47:54.971Z,6.00
2023-03-12T11:53:02.445Z,5.00
2023-03-12T11:58:13.398Z,5.00
2023-03-12T12:03:36.123Z,5.00
2023-03-12T12:08:45.575Z,6.00
2023-03-12T12:14:07.924Z,4.00
2023-03-12T12:19:29.636Z,6.25
2023-03-12T12:24:48.706Z,6.75
2023-03-12T12:30:11.518Z,4.00
2023-03-12T12:35:34.360Z,4.00
2023-03-12T12:40:41.666Z,4.25
2023-03-12T12:45:47.002Z,5.00
2023-03-12T12:50:53.945Z,4.00
2023-03-12T12:56:01.510Z,6.75
2023-03-12T13:01:06.260Z,4.75
2023-03-12T13:06:12.630Z,5.00
2023-03-12T13:11:20.366Z,4.75
2023-03-12T13:16:36.238Z,4.00
2023-03-12T13:21:55.642Z,5.00
2023-03-12T13:27:19.649Z,5.75
2023-03-12T13:32:36.736Z,4.00
2023-03-12T13:37:54.120Z,3.50
2023-03-12T13:43:09.026Z,6.00
2023-03-12T13:48:18.184Z,3.75
2023-03-12T13:53:28.835Z,5.75
2023-03-12T13:58:34.372Z,4.00
2023-03-12T14:03:42.607Z,5.75
2023-03-12T14:08:50.807Z,4.00
2023-03-12T14:14:08.519Z,3.50
2023-03-12T14:19:19.888Z,4.50
2023-03-12T14:24:25.463Z,4.25
2023-03-12T14:29:33.870Z,5.00
2023-03-12T14:34:48.475Z,4.75
2023-03-12T14:39:53.810Z,5.00
2023-03-12T14:45:26.441Z,4.75
2023-03-12T14:50:42.294Z,5.00
2023-03-12T14:55:47.590Z,5.50
2023-03-12T15:01:01.500Z,3.25
2023-03-12T15:06:07.091Z,4.00
2023-03-12T15:11:12.786Z,4.25
2023-03-12T15:16:18.232Z,4.75
2023-03-12T15:21:24.298Z,5.00
2023-03-12T15:26:34.830Z,4.00
2023-03-12T15:31:47.494Z,2.75
2023-03-12T15:36:53.319Z,5.75
2023-03-12T15:42:02.907Z,5.75
2023-03-12T15:47:22.379Z,5.00
2023-03-12T15:52:29.681Z,5.00
2023-03-12T15:57:36.202Z,4.00
2023-03-12T16:02:53.151Z,5.00
2023-03-12T16:07:58.322Z,3.50
2023-03-12T16:13:04.612Z,5.00
2023-03-12T16:18:14.560Z,4.50
2023-03-12T16:23:20.587Z,5.00
2023-03-12T16:28:26.066Z,3.75
2023-03-12T16:33:31.331Z,4.25
2023-03-12T16:38:36.420Z,4.25
2023-03-12T16:43:41.914Z,5.75
2023-03-12T16:48:47.068Z,5.00
2023-03-12T16:54:05.473Z,4.00
2023-03-12T16:59:23.368Z,5.00
2023-03-12T17:04:28.259Z,4.00
2023-03-12T17:09:33.456Z,4.00
2023-03-12T17:14:38.894Z,3.25
2023-03-12T17:19:43.774Z,5.00
2023-03-12T17:24:48.810Z,5.00
2023-03-12T17:29:53.816Z,4.25
2023-03-12T17:35:01.525Z,4.00
2023-03-12T17:40:09.984Z,4.25
2023-03-12T17:45:14.979Z,5.75
2023-03-12T17:50:20.272Z,5.50
2023-03-12T17:55:25.360Z,5.00
2023-03-12T18:00:30.399Z,5.00
2023-03-12T18:05:35.429Z,5.50
2023-03-12T18:10:42.164Z,4.00
2023-03-12T18:15:56.901Z,5.00
2023-03-12T18:21:01.918Z,6.00
2023-03-12T18:26:07.025Z,5.00
2023-03-12T18:31:11.884Z,5.50
2023-03-12T18:36:16.751Z,6.00
2023-03-12T18:41:21.899Z,6.00
2023-03-12T18:46:27.054Z,6.25
2023-03-12T18:51:31.933Z,5.00
2023-03-12T18:56:39.427Z,5.00
2023-03-12T19:01:44.643Z,6.00
2023-03-12T19:06:51.769Z,6.50
2023-03-12T19:11:56.594Z,5.25
2023-03-12T19:17:01.370Z,5.00
2023-03-12T19:22:06.121Z,6.00
2023-03-12T19:27:10.980Z,6.50
2023-03-12T19:32:15.546Z,6.00
2023-03-12T19:37:20.616Z,6.50
2023-03-12T19:42:25.383Z,4.00
2023-03-12T19:47:30.644Z,6.25
2023-03-12T19:52:35.368Z,5.50
2023-03-12T19:57:40.585Z,6.50
2023-03-12T20:02:47.257Z,6.25
2023-03-12T20:07:53.461Z,6.00
2023-03-12T20:12:57.996Z,6.00
2023-03-12T20:18:02.798Z,6.25
2023-03-12T20:23:07.790Z,5.00
2023-03-12T20:28:12.419Z,5.00
2023-03-12T20:33:17.127Z,5.00
2023-03-12T20:38:21.991Z,5.50
2023-03-12T20:43:26.703Z,6.00
2023-03-12T20:48:31.213Z,5.50
2023-03-12T20:53:35.891Z,6.25
2023-03-12T20:58:40.899Z,5.00
2023-03-12T21:03:45.463Z,5.00
2023-03-12T21:08:50.113Z,5.00
2023-03-12T21:13:55.122Z,5.50
2023-03-12T21:19:00.401Z,6.75
2023-03-12T21:24:05.225Z,5.25
2023-03-12T21:29:10.331Z,4.50
2023-03-12T21:34:15.055Z,4.00
2023-03-12T21:39:20.234Z,8.00
2023-03-12T21:44:24.803Z,5.25
2023-03-12T21:49:29.431Z,8.00
2023-03-12T21:54:34.818Z,5.25
2023-03-12T21:59:39.462Z,6.00
2023-03-12T22:04:44.272Z,7.00
2023-03-12T22:09:49.065Z,8.00
2023-03-12T22:14:53.848Z,6.25
2023-03-12T22:19:58.527Z,5.25
2023-03-12T22:25:03.174Z,5.75
2023-03-12T22:30:08.484Z,5.00
2023-03-12T22:35:13.125Z,6.00
2023-03-12T22:40:17.830Z,6.00
2023-03-12T22:45:22.405Z,6.75
2023-03-12T22:50:27.304Z,7.50
2023-03-12T22:55:31.908Z,5.50
2023-03-12T23:00:36.640Z,6.25
2023-03-12T23:05:41.284Z,7.00
2023-03-12T23:10:52.213Z,5.75
2023-03-12T23:15:56.805Z,8.00
2023-03-12T23:21:02.249Z,8.75
2023-03-12T23:26:07.395Z,7.75
2023-03-12T23:31:12.189Z,7.50
2023-03-12T23:36:17.995Z,9.50
2023-03-12T23:41:23.958Z,7.00
2023-03-12T23:46:31.491Z,8.25
2023-03-12T23:51:36.599Z,8.00
2023-03-12T23:56:42.333Z,6.25
